createdAt,value
2018-07-16T00:00:36.983Z,15.98
2018-07-16T00:03:05.032Z,15.95
2018-07-16T00:05:33.061Z,15.97
2018-07-16T00:08:01.109Z,15.97
2018-07-16T00:10:29.162Z,16.05
2018-07-16T00:12:57.279Z,16.10
2018-07-16T00:15:25.303Z,16.03
2018-07-16T00:17:53.454Z,16.02
2018-07-16T00:20:21.593Z,16.05
2018-07-16T00:22:49.675Z,16.06
2018-07-16T00:25:17.698Z,16.04
2018-07-16T00:27:45.740Z,16.06
2018-07-16T00:30:13.873Z,16.00
2018-07-16T00:32:41.856Z,16.10
2018-07-16T00:35:10.026Z,16.00
2018-07-16T00:37:38.168Z,15.95
2018-07-16T00:40:06.431Z,15.87
2018-07-16T00:42:34.612Z,15.82
2018-07-16T00:45:02.657Z,15.77
2018-07-16T00:47:30.664Z,15.73
2018-07-16T00:49:58.810Z,15.69
2018-07-16T00:52:26.794Z,15.62
2018-07-16T00:54:54.776Z,15.62
2018-07-16T00:57:22.805Z,15.57
2018-07-16T00:59:50.789Z,15.58
2018-07-16T01:02:18.998Z,15.53
2018-07-16T01:04:47.079Z,15.48
2018-07-16T01:07:15.135Z,15.47
2018-07-16T01:09:43.206Z,15.45
2018-07-16T01:12:11.269Z,15.41
2018-07-16T01:14:39.308Z,15.40
2018-07-16T01:17:08.224Z,15.38
2018-07-16T01:19:36.276Z,15.38
2018-07-16T01:22:04.253Z,15.37
2018-07-16T01:24:32.241Z,15.34
2018-07-16T01:27:00.259Z,15.38
2018-07-16T01:29:28.357Z,15.33
2018-07-16T01:31:56.376Z,15.33
2018-07-16T01:34:24.468Z,15.25
2018-07-16T01:36:52.564Z,15.18
2018-07-16T01:39:20.594Z,15.15
2018-07-16T01:41:48.679Z,15.13
2018-07-16T01:44:16.841Z,15.07
2018-07-16T01:46:45.042Z,15.07
2018-07-16T01:49:13.273Z,15.02
2018-07-16T01:51:41.436Z,14.98
2018-07-16T01:54:09.491Z,14.93
2018-07-16T01:56:37.538Z,14.90
2018-07-16T01:59:05.636Z,14.86
2018-07-16T02:01:33.690Z,15.01
2018-07-16T02:04:01.795Z,15.08
2018-07-16T02:06:29.784Z,15.05
2018-07-16T02:08:57.786Z,14.94
2018-07-16T02:11:25.887Z,14.83
2018-07-16T02:13:53.902Z,14.70
2018-07-16T02:16:21.932Z,14.62
2018-07-16T02:18:49.998Z,14.63
2018-07-16T02:21:18.092Z,14.59
2018-07-16T02:23:46.193Z,14.55
2018-07-16T02:26:14.292Z,14.51
2018-07-16T02:28:42.351Z,14.35
2018-07-16T02:31:10.382Z,14.36
2018-07-16T02:33:38.490Z,14.34
2018-07-16T02:36:06.543Z,14.34
2018-07-16T02:38:34.604Z,14.34
2018-07-16T02:41:02.713Z,14.32
2018-07-16T02:43:30.834Z,14.31
2018-07-16T02:45:58.858Z,14.34
2018-07-16T02:48:26.864Z,14.34
2018-07-16T02:50:55.028Z,14.34
2018-07-16T02:53:23.101Z,14.34
2018-07-16T02:55:51.113Z,14.23
2018-07-16T02:58:19.181Z,14.27
2018-07-16T03:00:47.213Z,14.23
2018-07-16T03:03:15.164Z,14.23
2018-07-16T03:05:43.157Z,14.20
2018-07-16T03:08:11.306Z,14.24
2018-07-16T03:10:39.330Z,14.26
2018-07-16T03:13:07.432Z,14.21
2018-07-16T03:15:35.447Z,14.23
2018-07-16T03:18:03.564Z,14.24
2018-07-16T03:20:31.688Z,14.31
2018-07-16T03:22:59.810Z,14.34
2018-07-16T03:25:27.949Z,14.38
2018-07-16T03:27:55.983Z,14.82
2018-07-16T03:30:23.964Z,15.90
2018-07-16T03:32:52.023Z,16.91
2018-07-16T03:35:20.092Z,17.72
2018-07-16T03:37:48.132Z,18.36
2018-07-16T03:40:16.241Z,19.22
2018-07-16T03:42:44.508Z,20.12
2018-07-16T03:45:12.501Z,20.63
2018-07-16T03:47:40.777Z,20.72
2018-07-16T03:50:08.989Z,21.20
2018-07-16T03:52:37.082Z,21.57
2018-07-16T03:55:05.232Z,22.15
2018-07-16T03:57:33.556Z,22.32
2018-07-16T04:00:01.759Z,22.72
2018-07-16T04:02:29.953Z,22.50
2018-07-16T04:04:58.274Z,21.90
2018-07-16T04:07:26.603Z,22.22
2018-07-16T04:09:54.825Z,22.60
2018-07-16T04:12:22.957Z,22.48
2018-07-16T04:14:51.158Z,22.68
2018-07-16T04:17:19.459Z,22.90
2018-07-16T04:19:47.634Z,23.17
2018-07-16T04:22:15.799Z,22.88
2018-07-16T04:24:44.051Z,22.79
2018-07-16T04:27:12.208Z,23.49
2018-07-16T04:29:40.326Z,23.12
2018-07-16T04:32:08.463Z,22.71
2018-07-16T04:34:36.714Z,22.65
2018-07-16T04:37:04.833Z,22.87
2018-07-16T04:39:33.015Z,23.17
2018-07-16T04:42:01.217Z,22.98
2018-07-16T04:44:29.478Z,23.27
2018-07-16T04:47:02.882Z,23.50
2018-07-16T04:49:31.317Z,23.87
2018-07-16T04:51:59.822Z,23.77
2018-07-16T04:54:28.225Z,23.81
2018-07-16T04:56:56.511Z,23.87
2018-07-16T04:59:25.027Z,23.81
2018-07-16T05:01:53.472Z,24.06
2018-07-16T05:04:26.234Z,23.85
2018-07-16T05:06:55.205Z,23.88
2018-07-16T05:09:23.596Z,24.01
2018-07-16T05:11:51.910Z,23.71
2018-07-16T05:14:20.164Z,23.34
2018-07-16T05:16:48.211Z,23.52
2018-07-16T05:19:16.337Z,23.03
2018-07-16T05:21:44.462Z,23.31
2018-07-16T05:24:13.814Z,23.28
2018-07-16T05:26:42.000Z,23.54
2018-07-16T05:29:10.148Z,23.78
2018-07-16T05:31:38.640Z,23.55
2018-07-16T05:34:06.864Z,23.27
2018-07-16T05:36:35.135Z,23.70
2018-07-16T05:39:04.000Z,23.78
2018-07-16T05:41:32.186Z,23.81
2018-07-16T05:44:01.032Z,24.04
2018-07-16T05:46:29.405Z,24.61
2018-07-16T05:48:57.844Z,24.57
2018-07-16T05:51:26.359Z,24.86
2018-07-16T05:53:54.777Z,24.89
2018-07-16T05:56:23.457Z,24.57
2018-07-16T05:58:51.903Z,24.92
2018-07-16T06:01:20.613Z,25.15
2018-07-16T06:03:49.049Z,24.63
2018-07-16T06:06:17.631Z,24.61
2018-07-16T06:08:46.296Z,24.62
2018-07-16T06:11:15.218Z,25.14
2018-07-16T06:13:43.966Z,25.06
2018-07-16T06:16:12.259Z,25.00
2018-07-16T06:18:40.768Z,25.31
2018-07-16T06:21:09.140Z,24.95
2018-07-16T06:23:37.442Z,24.98
2018-07-16T06:26:05.745Z,25.25
2018-07-16T06:28:34.212Z,25.70
2018-07-16T06:31:02.860Z,25.93
2018-07-16T06:33:31.498Z,26.49
2018-07-16T06:36:00.419Z,27.09
2018-07-16T06:38:28.991Z,26.60
2018-07-16T06:40:57.827Z,26.32
2018-07-16T06:43:26.376Z,26.35
2018-07-16T06:45:55.152Z,26.17
2018-07-16T06:48:23.832Z,25.78
2018-07-16T06:50:52.785Z,25.26
2018-07-16T06:53:21.154Z,25.78
2018-07-16T06:55:49.820Z,25.39
2018-07-16T06:58:18.312Z,25.75
2018-07-16T07:00:46.735Z,26.29
2018-07-16T07:03:15.354Z,26.09
2018-07-16T07:05:43.835Z,26.79
2018-07-16T07:08:12.287Z,26.64
2018-07-16T07:10:40.751Z,26.47
2018-07-16T07:13:09.231Z,26.90
2018-07-16T07:15:37.642Z,26.00
2018-07-16T07:18:06.331Z,26.55
2018-07-16T07:20:34.858Z,26.58
2018-07-16T07:23:03.431Z,26.06
2018-07-16T07:25:31.941Z,25.87
2018-07-16T07:28:00.185Z,25.59
2018-07-16T07:30:29.201Z,25.62
2018-07-16T07:32:58.172Z,26.07
2018-07-16T07:35:27.839Z,26.52
2018-07-16T07:37:56.447Z,26.44
2018-07-16T07:40:25.130Z,26.73
2018-07-16T07:42:53.693Z,26.46
2018-07-16T07:45:22.242Z,26.27
2018-07-16T07:47:50.597Z,26.20
2018-07-16T07:50:19.139Z,26.15
2018-07-16T07:52:47.916Z,25.96
2018-07-16T07:55:16.607Z,26.63
2018-07-16T07:57:44.710Z,26.20
2018-07-16T08:00:13.212Z,25.78
2018-07-16T08:02:41.589Z,25.69
2018-07-16T08:05:10.404Z,25.49
2018-07-16T08:07:39.177Z,25.47
2018-07-16T08:10:08.293Z,25.44
2018-07-16T08:12:36.753Z,26.16
2018-07-16T08:15:05.386Z,25.98
2018-07-16T08:17:33.785Z,26.15
2018-07-16T08:20:02.147Z,26.88
2018-07-16T08:22:30.667Z,27.75
2018-07-16T08:24:59.942Z,28.21
2018-07-16T08:27:28.718Z,27.58
2018-07-16T08:29:57.106Z,27.52
2018-07-16T08:32:25.637Z,28.17
2018-07-16T08:34:53.974Z,27.93
2018-07-16T08:37:22.651Z,28.04
2018-07-16T08:39:51.964Z,28.28
2018-07-16T08:42:20.739Z,26.55
2018-07-16T08:44:49.629Z,27.44
2018-07-16T08:47:18.258Z,28.16
2018-07-16T08:49:47.908Z,28.74
2018-07-16T08:52:16.265Z,27.93
2018-07-16T08:54:44.665Z,26.91
2018-07-16T08:57:13.406Z,26.20
2018-07-16T08:59:42.192Z,27.22
2018-07-16T09:02:10.631Z,27.80
2018-07-16T09:04:39.007Z,27.94
2018-07-16T09:07:07.383Z,28.14
2018-07-16T09:09:35.750Z,28.59
2018-07-16T09:12:04.193Z,27.45
2018-07-16T09:14:32.461Z,27.11
2018-07-16T09:17:00.981Z,26.96
2018-07-16T09:19:29.738Z,26.81
2018-07-16T09:21:58.152Z,26.74
2018-07-16T09:24:26.606Z,26.91
2018-07-16T09:26:55.029Z,26.13
2018-07-16T09:29:23.351Z,26.68
2018-07-16T09:31:51.785Z,27.96
2018-07-16T09:34:20.850Z,27.98
2018-07-16T09:36:49.155Z,28.35
2018-07-16T09:39:18.148Z,28.11
2018-07-16T09:41:46.584Z,27.10
2018-07-16T09:44:15.343Z,27.72
2018-07-16T09:46:43.857Z,26.90
2018-07-16T09:49:12.418Z,27.44
2018-07-16T09:51:41.230Z,26.46
2018-07-16T09:54:10.025Z,25.76
2018-07-16T09:56:39.380Z,25.70
2018-07-16T09:59:07.985Z,26.74
2018-07-16T10:01:42.162Z,27.98
2018-07-16T10:04:10.669Z,28.86
2018-07-16T10:06:39.346Z,28.63
2018-07-16T10:09:08.380Z,28.23
2018-07-16T10:11:36.935Z,28.41
2018-07-16T10:14:05.279Z,28.46
2018-07-16T10:16:33.975Z,27.65
2018-07-16T10:19:02.995Z,27.92
2018-07-16T10:21:31.450Z,28.59
2018-07-16T10:23:59.771Z,29.34
2018-07-16T10:26:28.169Z,29.18
2018-07-16T10:28:56.499Z,28.45
2018-07-16T10:31:24.861Z,28.28
2018-07-16T10:33:53.385Z,28.24
2018-07-16T10:36:21.654Z,28.83
2018-07-16T10:38:50.204Z,29.16
2018-07-16T10:41:18.478Z,29.49
2018-07-16T10:43:46.558Z,30.06
2018-07-16T10:46:14.786Z,29.56
2018-07-16T10:48:42.881Z,28.11
2018-07-16T10:51:11.098Z,28.31
2018-07-16T10:53:39.210Z,28.79
2018-07-16T10:56:07.441Z,28.30
2018-07-16T10:58:35.765Z,28.41
2018-07-16T11:01:04.400Z,29.13
2018-07-16T11:03:32.786Z,29.31
2018-07-16T11:06:06.485Z,29.48
2018-07-16T11:08:34.968Z,29.26
2018-07-16T11:11:03.693Z,29.54
2018-07-16T11:13:32.336Z,29.09
2018-07-16T11:16:00.806Z,28.88
2018-07-16T11:18:29.239Z,29.05
2018-07-16T11:20:57.736Z,29.00
2018-07-16T11:23:26.128Z,28.75
2018-07-16T11:25:55.258Z,28.55
2018-07-16T11:28:24.172Z,28.30
2018-07-16T11:30:52.852Z,28.02
2018-07-16T11:33:21.308Z,27.57
2018-07-16T11:35:49.578Z,28.06
2018-07-16T11:38:18.066Z,28.40
2018-07-16T11:40:46.432Z,27.70
2018-07-16T11:43:14.747Z,27.90
2018-07-16T11:45:43.047Z,28.71
2018-07-16T11:48:11.336Z,29.28
2018-07-16T11:50:39.766Z,29.49
2018-07-16T11:53:08.470Z,29.73
2018-07-16T11:55:38.803Z,29.84
2018-07-16T11:58:08.331Z,30.02
2018-07-16T12:00:36.827Z,30.24
2018-07-16T12:03:05.358Z,30.50
2018-07-16T12:05:33.778Z,30.25
2018-07-16T12:08:02.315Z,30.00
2018-07-16T12:10:30.717Z,30.55
2018-07-16T12:12:59.012Z,30.44
2018-07-16T12:15:27.457Z,30.22
2018-07-16T12:17:55.864Z,30.53
2018-07-16T12:20:24.312Z,30.41
2018-07-16T12:22:52.658Z,29.93
2018-07-16T12:25:23.632Z,29.72
2018-07-16T12:27:52.305Z,28.19
2018-07-16T12:30:20.655Z,27.91
2018-07-16T12:32:49.094Z,27.70
2018-07-16T12:35:17.755Z,28.55
2018-07-16T12:37:46.372Z,28.86
2018-07-16T12:40:14.805Z,28.48
2018-07-16T12:42:43.346Z,28.06
2018-07-16T12:45:11.900Z,28.33
2018-07-16T12:47:40.523Z,28.93
2018-07-16T12:50:09.165Z,29.47
2018-07-16T12:52:37.402Z,30.00
2018-07-16T12:55:05.701Z,30.17
2018-07-16T12:57:33.970Z,29.82
2018-07-16T13:00:02.380Z,30.07
2018-07-16T13:02:30.508Z,30.04
2018-07-16T13:04:58.964Z,29.92
2018-07-16T13:07:27.164Z,29.81
2018-07-16T13:09:55.564Z,29.75
2018-07-16T13:12:24.160Z,29.43
2018-07-16T13:14:52.345Z,28.89
2018-07-16T13:17:20.778Z,28.73
2018-07-16T13:19:53.536Z,28.15
2018-07-16T13:22:25.802Z,28.00
2018-07-16T13:24:57.248Z,27.62
2018-07-16T13:27:26.941Z,28.03
2018-07-16T13:29:55.253Z,28.28
2018-07-16T13:32:23.707Z,28.44
2018-07-16T13:34:52.001Z,28.48
2018-07-16T13:37:20.333Z,28.32
2018-07-16T13:39:48.757Z,28.09
2018-07-16T13:42:16.954Z,28.00
2018-07-16T13:44:45.216Z,28.19
2018-07-16T13:47:13.409Z,28.18
2018-07-16T13:49:41.546Z,28.16
2018-07-16T13:52:09.794Z,27.96
2018-07-16T13:54:38.182Z,27.92
2018-07-16T13:57:06.440Z,28.18
2018-07-16T13:59:34.555Z,28.22
2018-07-16T14:02:02.745Z,27.93
2018-07-16T14:04:30.917Z,27.77
2018-07-16T14:06:59.094Z,27.84
2018-07-16T14:09:27.144Z,27.59
2018-07-16T14:11:55.283Z,27.74
2018-07-16T14:14:23.549Z,27.96
2018-07-16T14:16:51.888Z,28.03
2018-07-16T14:19:20.009Z,27.99
2018-07-16T14:21:48.120Z,28.02
2018-07-16T14:24:16.193Z,27.87
2018-07-16T14:26:44.290Z,27.79
2018-07-16T14:29:12.551Z,27.64
2018-07-16T14:31:40.653Z,27.52
2018-07-16T14:34:08.868Z,27.65
2018-07-16T14:36:37.317Z,27.59
2018-07-16T14:39:06.329Z,27.47
2018-07-16T14:41:34.533Z,27.61
2018-07-16T14:44:02.936Z,27.75
2018-07-16T14:46:31.110Z,27.64
2018-07-16T14:48:59.329Z,27.64
2018-07-16T14:51:27.438Z,27.56
2018-07-16T14:53:55.500Z,27.45
2018-07-16T14:56:23.589Z,27.25
2018-07-16T14:58:51.688Z,27.28
2018-07-16T15:01:19.780Z,27.25
2018-07-16T15:03:47.963Z,27.21
2018-07-16T15:06:16.045Z,27.31
2018-07-16T15:08:44.134Z,27.16
2018-07-16T15:11:12.256Z,27.00
2018-07-16T15:13:40.389Z,27.10
2018-07-16T15:16:08.568Z,26.73
2018-07-16T15:18:36.837Z,26.78
2018-07-16T15:21:05.319Z,26.88
2018-07-16T15:23:33.263Z,26.98
2018-07-16T15:26:01.397Z,26.90
2018-07-16T15:28:29.544Z,26.74
2018-07-16T15:30:57.640Z,26.68
2018-07-16T15:33:25.765Z,26.57
2018-07-16T15:35:53.952Z,26.51
2018-07-16T15:38:22.142Z,26.30
2018-07-16T15:40:50.256Z,26.19
2018-07-16T15:43:18.364Z,26.22
2018-07-16T15:45:46.432Z,26.38
2018-07-16T15:48:14.512Z,26.20
2018-07-16T15:50:42.628Z,26.24
2018-07-16T15:53:10.678Z,26.08
2018-07-16T15:55:38.850Z,26.06
2018-07-16T15:58:06.936Z,25.93
2018-07-16T16:00:35.362Z,25.80
2018-07-16T16:03:03.397Z,25.75
2018-07-16T16:05:31.679Z,25.59
2018-07-16T16:07:59.993Z,25.37
2018-07-16T16:10:28.216Z,25.23
2018-07-16T16:12:56.377Z,25.08
2018-07-16T16:15:24.430Z,24.85
2018-07-16T16:17:52.516Z,24.71
2018-07-16T16:20:21.021Z,24.59
2018-07-16T16:22:49.220Z,24.47
2018-07-16T16:25:17.437Z,24.36
2018-07-16T16:27:45.609Z,24.24
2018-07-16T16:30:13.876Z,24.16
2018-07-16T16:32:41.987Z,24.12
2018-07-16T16:35:10.245Z,24.07
2018-07-16T16:37:38.515Z,24.08
2018-07-16T16:40:06.782Z,24.00
2018-07-16T16:42:34.913Z,23.97
2018-07-16T16:45:03.141Z,23.93
2018-07-16T16:47:31.208Z,23.93
2018-07-16T16:49:59.496Z,23.83
2018-07-16T16:52:27.611Z,23.72
2018-07-16T16:54:55.767Z,23.61
2018-07-16T16:57:23.884Z,23.46
2018-07-16T16:59:51.897Z,23.39
2018-07-16T17:02:20.146Z,23.23
2018-07-16T17:04:48.435Z,23.11
2018-07-16T17:07:16.417Z,23.12
2018-07-16T17:09:44.789Z,23.10
2018-07-16T17:12:12.838Z,22.99
2018-07-16T17:14:41.040Z,22.98
2018-07-16T17:17:09.241Z,22.88
2018-07-16T17:19:37.462Z,22.83
2018-07-16T17:22:05.886Z,22.80
2018-07-16T17:24:34.154Z,22.69
2018-07-16T17:27:02.368Z,22.58
2018-07-16T17:29:30.800Z,22.28
2018-07-16T17:31:59.339Z,22.26
2018-07-16T17:34:27.708Z,22.22
2018-07-16T17:36:56.425Z,22.10
2018-07-16T17:39:24.522Z,22.09
2018-07-16T17:41:52.661Z,22.10
2018-07-16T17:44:20.882Z,21.96
2018-07-16T17:46:49.120Z,21.90
2018-07-16T17:49:17.331Z,21.87
2018-07-16T17:51:46.975Z,21.74
2018-07-16T17:54:16.216Z,21.63
2018-07-16T17:56:44.608Z,21.65
2018-07-16T17:59:12.922Z,21.60
2018-07-16T18:01:41.179Z,21.63
2018-07-16T18:04:09.506Z,21.47
2018-07-16T18:06:38.357Z,21.41
2018-07-16T18:09:07.931Z,21.24
2018-07-16T18:11:36.234Z,21.16
2018-07-16T18:14:05.232Z,21.08
2018-07-16T18:16:33.747Z,21.00
2018-07-16T18:19:02.906Z,20.89
2018-07-16T18:21:31.424Z,20.80
2018-07-16T18:23:59.669Z,20.69
2018-07-16T18:26:28.141Z,20.67
2018-07-16T18:28:56.767Z,20.66
2018-07-16T18:31:24.886Z,20.68
2018-07-16T18:33:53.386Z,20.73
2018-07-16T18:36:21.700Z,20.61
2018-07-16T18:38:49.911Z,20.54
2018-07-16T18:41:18.166Z,20.54
2018-07-16T18:43:46.387Z,20.57
2018-07-16T18:46:14.679Z,20.53
2018-07-16T18:48:42.946Z,20.42
2018-07-16T18:51:11.102Z,20.45
2018-07-16T18:53:39.209Z,20.37
2018-07-16T18:56:07.339Z,20.21
2018-07-16T18:58:35.476Z,20.25
2018-07-16T19:01:03.972Z,20.29
2018-07-16T19:03:32.378Z,20.34
2018-07-16T19:06:01.219Z,20.34
2018-07-16T19:08:29.481Z,20.31
2018-07-16T19:10:57.932Z,20.32
2018-07-16T19:13:26.529Z,20.27
2018-07-16T19:15:55.222Z,20.25
2018-07-16T19:18:23.816Z,20.27
2018-07-16T19:20:52.280Z,20.28
2018-07-16T19:23:20.518Z,20.29
2018-07-16T19:25:48.922Z,20.29
2018-07-16T19:28:17.385Z,20.23
2018-07-16T19:30:45.548Z,20.26
2018-07-16T19:33:13.919Z,20.31
2018-07-16T19:35:42.589Z,20.29
2018-07-16T19:38:11.118Z,20.32
2018-07-16T19:40:39.552Z,20.34
2018-07-16T19:43:08.060Z,20.33
2018-07-16T19:45:36.269Z,20.36
2018-07-16T19:48:04.718Z,20.34
2018-07-16T19:50:32.952Z,20.31
2018-07-16T19:53:01.093Z,20.37
2018-07-16T19:55:29.502Z,20.33
2018-07-16T19:57:57.773Z,20.25
2018-07-16T20:00:25.983Z,20.18
2018-07-16T20:02:54.207Z,20.08
2018-07-16T20:05:22.531Z,20.01
2018-07-16T20:07:50.748Z,19.84
2018-07-16T20:10:19.090Z,19.79
2018-07-16T20:12:47.315Z,19.56
2018-07-16T20:15:19.912Z,19.45
2018-07-16T20:17:48.282Z,19.36
2018-07-16T20:20:16.637Z,19.21
2018-07-16T20:22:44.806Z,19.13
2018-07-16T20:25:13.140Z,19.03
2018-07-16T20:27:41.408Z,18.91
2018-07-16T20:30:10.148Z,18.90
2018-07-16T20:32:38.386Z,18.79
2018-07-16T20:35:06.776Z,18.88
2018-07-16T20:37:35.073Z,18.92
2018-07-16T20:40:03.345Z,18.97
2018-07-16T20:42:31.577Z,18.86
2018-07-16T20:44:59.824Z,18.80
2018-07-16T20:47:28.035Z,18.62
2018-07-16T20:49:56.113Z,18.50
2018-07-16T20:52:24.404Z,18.49
2018-07-16T20:54:52.505Z,18.36
2018-07-16T20:57:20.667Z,18.32
2018-07-16T20:59:48.816Z,18.36
2018-07-16T21:02:16.901Z,18.34
2018-07-16T21:04:45.317Z,18.32
2018-07-16T21:07:13.751Z,18.32
2018-07-16T21:09:41.845Z,18.33
2018-07-16T21:12:09.975Z,18.29
2018-07-16T21:14:38.214Z,18.33
2018-07-16T21:17:06.384Z,18.36
2018-07-16T21:19:34.546Z,18.39
2018-07-16T21:22:02.816Z,18.44
2018-07-16T21:24:31.049Z,18.52
2018-07-16T21:26:59.254Z,18.62
2018-07-16T21:29:27.438Z,18.57
2018-07-16T21:31:55.588Z,18.61
2018-07-16T21:34:23.749Z,18.60
2018-07-16T21:36:51.885Z,18.57
2018-07-16T21:39:20.090Z,18.50
2018-07-16T21:41:48.382Z,18.44
2018-07-16T21:44:16.570Z,18.45
2018-07-16T21:46:44.658Z,18.42
2018-07-16T21:49:12.840Z,18.37
2018-07-16T21:51:41.147Z,18.33
2018-07-16T21:54:09.361Z,18.25
2018-07-16T21:56:38.039Z,18.20
2018-07-16T21:59:06.429Z,18.16
2018-07-16T22:01:34.618Z,18.06
2018-07-16T22:04:02.896Z,18.02
2018-07-16T22:06:31.274Z,17.95
2018-07-16T22:08:59.593Z,18.10
2018-07-16T22:11:27.731Z,17.93
2018-07-16T22:13:55.890Z,17.84
2018-07-16T22:16:24.025Z,17.80
2018-07-16T22:18:52.221Z,17.76
2018-07-16T22:21:20.413Z,17.71
2018-07-16T22:23:48.686Z,17.68
2018-07-16T22:26:16.750Z,17.60
2018-07-16T22:28:44.824Z,17.59
2018-07-16T22:31:12.876Z,17.54
2018-07-16T22:33:40.938Z,17.60
2018-07-16T22:36:09.083Z,17.65
2018-07-16T22:38:37.181Z,17.65
2018-07-16T22:41:05.297Z,17.67
2018-07-16T22:43:33.450Z,17.74
2018-07-16T22:46:01.511Z,17.76
2018-07-16T22:48:29.659Z,17.78
2018-07-16T22:50:57.794Z,17.77
2018-07-16T22:53:25.982Z,17.70
2018-07-16T22:55:54.013Z,17.59
2018-07-16T22:58:22.109Z,17.56
2018-07-16T23:00:50.269Z,17.55
2018-07-16T23:03:18.452Z,17.54
2018-07-16T23:05:46.478Z,17.55
2018-07-16T23:08:16.519Z,17.51
2018-07-16T23:10:44.566Z,17.44
2018-07-16T23:13:12.613Z,17.40
2018-07-16T23:15:40.867Z,17.39
2018-07-16T23:18:08.957Z,17.39
2018-07-16T23:20:37.084Z,17.34
2018-07-16T23:23:05.244Z,17.31
2018-07-16T23:25:33.251Z,17.27
2018-07-16T23:28:01.309Z,17.24
2018-07-16T23:30:29.384Z,17.25
2018-07-16T23:32:57.486Z,17.23
2018-07-16T23:35:25.605Z,17.21
2018-07-16T23:37:53.660Z,17.21
2018-07-16T23:40:21.708Z,17.21
2018-07-16T23:42:49.729Z,17.20
2018-07-16T23:45:17.813Z,17.14
2018-07-16T23:47:45.822Z,17.51
2018-07-16T23:50:13.894Z,17.32
2018-07-16T23:52:41.924Z,17.33
2018-07-16T23:55:10.012Z,17.29
2018-07-16T23:57:38.016Z,17.33
